Pacific Palisades, California
Current Conditions -  °F | °C
As of 10:51 AM on Monday 20 Oct 2014 (Local Time) from KSMO Reporting Station
Overcast Overcast  
Wind Chill: 22°   Ceiling: 2100
Heat Index: 22°   Visibility: 10mi
Dew Point: 15°   Wind: 3mph
Humidity: 66%   Direction: 90°E
Pressure: 29.96"   Gusts: NA
Location:  34.05°N, 118.53°W
Report Text: KSMO 201751Z 09003KT 10SM OVC021 22/15 A2996 RMK AO2 SLP142 T02170150 10222 20189 51013
Loading
Personal Weather Stations






























Interactive Weather Map
Tropical Storm Tracking
New forecast layout! Learn more

10-Day Weather Forecast

Advertisements
Track Severe Weather on mobile